CST,Max TemperatureF,Mean TemperatureF,Min TemperatureF,Max Dew PointF,MeanDew PointF,Min DewpointF,Max Humidity, Mean Humidity, Min Humidity, Max Sea Level PressureIn, Mean Sea Level PressureIn, Min Sea Level PressureIn, Max VisibilityMiles, Mean VisibilityMiles, Min VisibilityMiles, Max Wind SpeedMPH, Mean Wind SpeedMPH, Max Gust SpeedMPH,PrecipitationIn, CloudCover, Events, WindDirDegrees
2012-12-1,68,62,56,58,55,52,93,78,63,30.09,30.02,29.92,10,10,9,21,12,30,0.00,4,,176
2012-12-2,77,70,62,59,57,53,84,65,46,30.09,30.01,29.96,10,10,10,18,9,28,0.00,2,,188
2012-12-3,74,68,62,58,56,52,84,65,46,29.98,29.95,29.88,10,10,9,24,13,32,0.00,0,,182
2012-12-4,63,51,38,58,50,30,100,72,43,30.33,30.12,29.95,10,6,1,16,5,22,0.58,6,Rain-Thunderstorm,330
2012-12-5,58,45,31,34,32,29,85,60,35,30.35,30.25,30.11,10,10,10,16,5,20,0.00,0,,112
2012-12-6,63,50,36,48,42,32,85,69,52,30.08,29.95,29.88,10,10,10,17,7,22,0.00,0,,150
2012-12-7,60,53,45,52,49,45,93,80,67,29.90,29.86,29.81,10,9,6,13,3,16,0.00,6,,155
2012-12-8,55,51,46,52,49,45,100,92,83,29.94,29.88,29.83,9,4,0,14,6,16,T,6,Fog-Rain,97
2012-12-9,58,45,32,56,49,25,100,88,76,29.96,29.82,29.77,10,4,0,17,9,24,0.32,8,Fog-Rain-Thunderstorm,317
2012-12-10,32,27,21,22,18,15,81,72,63,30.12,30.03,29.95,10,10,9,17,9,25,T,4,,310
2012-12-11,46,31,16,22,15,7,92,56,20,30.24,30.16,30.11,10,10,10,8,3,16,0.00,0,,168
2012-12-12,52,37,22,20,14,8,74,46,17,30.34,30.27,30.24,10,10,10,16,7,21,0.00,0,,148
2012-12-13,60,45,30,24,19,15,58,39,19,30.30,30.24,30.17,10,10,10,16,10,21,0.00,0,,151
2012-12-14,55,45,34,39,27,20,71,52,32,30.20,30.07,29.86,10,10,10,23,10,29,0.01,3,Rain,142
2012-12-15,66,56,46,48,40,30,100,65,30,29.83,29.76,29.69,10,10,6,22,10,32,0.06,3,Rain,192
2012-12-16,65,56,47,34,32,30,52,41,30,29.74,29.69,29.61,10,10,10,10,3,16,0.00,1,,205
2012-12-17,50,44,37,39,36,30,100,78,56,29.84,29.74,29.66,10,6,0,15,7,22,0.00,3,Fog,296
2012-12-18,67,50,33,34,31,28,82,53,24,29.86,29.80,29.73,10,10,10,16,4,23,0.00,0,,181
2012-12-19,63,51,38,59,48,32,93,77,60,29.86,29.67,29.48,10,9,2,21,9,24,0.25,4,Rain-Thunderstorm,155
2012-12-20,57,43,29,50,25,11,82,63,44,30.25,29.86,29.42,10,10,5,33,18,47,0.02,4,Snow,283
2012-12-21,48,38,28,19,14,11,63,44,24,30.37,30.31,30.25,10,10,10,16,7,24,0.00,0,,302
2012-12-22,64,45,26,27,16,2,75,42,8,30.28,30.15,30.00,10,10,10,20,7,28,0.00,0,,160
2012-12-23,63,55,46,45,41,29,80,61,42,29.97,29.87,29.80,10,10,10,13,6,18,0.00,2,,179
2012-12-24,47,38,29,38,27,24,92,71,49,30.03,29.96,29.81,10,7,3,14,7,23,0.00,1,,315
2012-12-25,31,28,24,25,21,18,88,79,69,30.09,29.97,29.89,10,7,1,24,12,37,0.01,7,Snow,23
2012-12-26,34,28,21,21,18,16,84,70,56,30.20,30.10,29.96,10,10,10,21,10,29,T,4,,315
2012-12-27,38,29,19,25,21,16,91,73,54,30.16,30.07,29.97,10,10,9,21,10,25,0.00,1,,140
2012-12-28,35,32,28,31,29,22,92,85,78,30.04,29.95,29.87,10,6,1,16,7,23,0.01,8,Rain-Snow,334
2012-12-29,35,28,21,19,16,14,77,62,47,30.42,30.24,30.04,10,9,6,22,9,30,0.00,3,,296
2012-12-30,44,32,19,22,17,14,81,57,33,30.46,30.38,30.24,10,10,10,18,7,23,0.00,0,,160
2012-12-31,36,34,32,36,33,22,100,78,56,30.26,30.10,29.99,10,3,0,14,5,18,0.73,8,Fog-Rain,129